Flight Track Log - Related Links

Times and Time Zones

All times are in EDT time to prevent confusion due to time zone crossing. See the UPS1337 flight status page for this flight to view local times or setup timezone preferences in your user account.

Time Position Orientation Groundspeed Altitude Reporting Facility
EDT Latitude Longitude Course Direction KTS MPH feet Rate Location/Type
Wed 09:40:36 PM 27.9167 -82.6833 360° North 169 194 700  Level Tampa TRACON
Wed 09:41:30 PM 27.9667 -82.6833 360° North 219 252 2,600 1,278 Climbing Tampa TRACON
Wed 09:42:24 PM 28.0333 -82.6500 24° Northeast 257 296 3,000 1,850 Climbing Tampa TRACON
Wed 09:43:30 PM 28.1167 -82.6333 10° North 284 327 6,300 3,286 Climbing Tampa TRACON
Wed 09:44:30 PM 28.1833 -82.6667 336° Northwest 298 343 9,900 2,087 Climbing Tampa TRACON
Wed 09:46:57 PM 28.4064 -82.7275 347° North 357 411 13,500 1,855 Climbing Jacksonville Center
Wed 09:47:57 PM 28.5131 -82.7603 345° North 376 433 16,300 2,529 Climbing Jacksonville Center
Wed 09:48:58 PM 28.6214 -82.7956 344° North 388 447 18,600 2,281 Climbing Jacksonville Center
Wed 09:49:58 PM 28.7342 -82.8286 346° North 400 460 20,900 2,132 Climbing Jacksonville Center
Wed 09:50:59 PM 28.8469 -82.8642 345° North 407 468 22,900 2,118 Climbing Jacksonville Center
Wed 09:51:57 PM 28.9681 -82.9019 345° North 425 489 25,100 2,186 Climbing Jacksonville Center
Wed 09:52:57 PM 29.0850 -82.9400 344° North 433 498 27,200 2,200 Climbing Jacksonville Center
Wed 09:53:57 PM 29.2017 -82.9758 345° North 438 504 29,500 1,983 Climbing Jacksonville Center
Wed 09:54:58 PM 29.3167 -83.0117 345° North 433 498 31,200 1,623 Climbing Jacksonville Center
Wed 09:55:59 PM 29.4272 -83.0475 344° North 423 487 32,800 1,388 Climbing Jacksonville Center
Wed 09:56:59 PM 29.5564 -83.0931 343° North 418 481 34,000 615 Climbing Jacksonville Center
Wed 09:57:56 PM 29.6672 -83.1267 345° North 418 481 34,000 -51 Level Jacksonville Center
Wed 09:58:57 PM 29.7819 -83.1631 345° North 424 488 33,900 -49 Descending Jacksonville Center
Wed 09:59:58 PM 29.8925 -83.1969 345° North 417 480 33,900 49 Level Jacksonville Center
Wed 10:00:59 PM 30.0031 -83.2308 345° North 411 473 34,000 50 Climbing Jacksonville Center
Wed 10:01:57 PM 30.1053 -83.2647 344° North 411 473 34,000  Level Jacksonville Center
Wed 10:06:43 PM 30.6628 -83.4237 347° North 419 482 34,000  Level FlightAware ADS-B (KONZ)
Wed 10:07:24 PM 30.7401 -83.4450 347° North 419 482 34,000  Level FlightAware ADS-B (KONZ)
Wed 10:08:35 PM 30.8747 -83.4821 347° North 422 486 34,000  Level FlightAware ADS-B (KONZ)
Wed 10:09:48 PM 31.0145 -83.5207 347° North 423 487 34,000  Level FlightAware ADS-B (KONZ)
Wed 10:10:51 PM 31.1258 -83.5539 347° North 412 474 34,000  Level Atlanta Center
Wed 10:11:51 PM 31.2408 -83.5847 347° North 417 480 34,000  Level Atlanta Center
Wed 10:12:51 PM 31.3536 -83.6158 347° North 417 480 34,000  Level Atlanta Center
Wed 10:13:51 PM 31.4664 -83.6469 347° North 417 480 34,000  Level Atlanta Center
Wed 10:14:51 PM 31.5769 -83.6781 347° North 411 473 34,000  Level Atlanta Center
Wed 10:15:51 PM 31.6939 -83.7142 345° North 417 480 34,000  Level Atlanta Center
Wed 10:16:51 PM 31.8025 -83.7408 348° North 428 493 34,000  Level Atlanta Center
Wed 10:17:51 PM 31.9153 -83.7722 347° North 427 491 34,000  Level Atlanta Center
Wed 10:18:51 PM 32.0261 -83.8061 345° North 415 478 34,000  Level Atlanta Center
Wed 10:19:51 PM 32.1408 -83.8378 347° North 410 472 34,000  Level Atlanta Center
Wed 10:20:51 PM 32.2536 -83.8694 347° North 415 478 34,000  Level Atlanta Center
Wed 10:21:51 PM 32.3644 -83.9011 346° North 415 478 34,000  Level Atlanta Center
Wed 10:22:51 PM 32.4772 -83.9356 346° North 415 478 34,000  Level Atlanta Center
Wed 10:23:51 PM 32.5897 -83.9672 347° North 415 478 34,000  Level Atlanta Center
Wed 10:24:51 PM 32.7047 -83.9994 347° North 415 478 34,000  Level Atlanta Center
Wed 10:25:51 PM 32.8194 -84.0314 347° North 415 478 34,000  Level Atlanta Center
Wed 10:26:51 PM 32.9322 -84.0661 346° North 415 478 34,000  Level Atlanta Center
Wed 10:27:51 PM 33.0450 -84.0983 347° North 415 478 34,000  Level Atlanta Center
Wed 10:28:51 PM 33.1681 -84.1381 345° North 415 478 34,000  Level Atlanta Center
Wed 10:29:51 PM 33.2808 -84.1706 346° North 415 478 34,000  Level Atlanta Center
Wed 10:30:51 PM 33.3975 -84.2031 347° North 415 478 34,000  Level Atlanta Center
Wed 10:35:50 PM 34.0247 -84.3823 346° North 417 480 34,000  Level FlightAware ADS-B (KDZJ)
Wed 10:36:31 PM 34.1010 -84.4050 346° North 416 479 34,000  Level FlightAware ADS-B (KDZJ)
Wed 10:37:09 PM 34.1731 -84.4264 346° North 417 480 34,000  Level FlightAware ADS-B (KDZJ)
Wed 10:37:51 PM 34.2514 -84.4498 346° North 418 481 34,000  Level FlightAware ADS-B (KDZJ)
Wed 10:38:31 PM 34.3260 -84.4720 346° North 412 474 34,000  Level FlightAware ADS-B (KDZJ)
Wed 10:39:10 PM 34.4007 -84.4943 346° North 412 474 34,000  Level FlightAware ADS-B (KDZJ)
Wed 10:39:49 PM 34.4743 -84.5164 346° North 418 481 34,000  Level FlightAware ADS-B (KDZJ)
Wed 10:40:31 PM 34.5530 -84.5398 346° North 416 479 34,000  Level FlightAware ADS-B (KDZJ)
Wed 10:41:11 PM 34.6265 -84.5620 346° North 415 478 34,000  Level FlightAware ADS-B (KDZJ)
Wed 10:41:50 PM 34.7004 -84.5843 346° North 414 476 34,000  Level FlightAware ADS-B (KDZJ)
Wed 10:42:32 PM 34.7781 -84.6077 346° North 415 478 34,000  Level FlightAware ADS-B (KDZJ)
Wed 10:43:11 PM 34.8515 -84.6299 346° North 416 479 34,000  Level FlightAware ADS-B (KDZJ)
Wed 10:43:51 PM 34.9255 -84.6523 346° North 412 474 34,000  Level FlightAware ADS-B (KDZJ)
Wed 10:44:31 PM 35.0023 -84.6756 346° North 414 476 34,000  Level FlightAware ADS-B (KDZJ)
Wed 10:45:12 PM 35.0790 -84.6989 346° North 416 479 34,000  Level FlightAware ADS-B (KDZJ)
Wed 10:45:44 PM 35.1399 -84.7175 346° North 415 478 34,000  Level FlightAware ADS-B (KDZJ)
Wed 10:46:31 PM 35.2285 -84.7445 346° North 414 476 34,000  Level FlightAware ADS-B (KDZJ)
Wed 10:47:51 PM 35.3175 -84.7744 346° North 411 473 34,000  Level Atlanta Center
Wed 10:48:51 PM 35.4300 -84.8086 346° North 411 473 34,000  Level Atlanta Center
Wed 10:49:51 PM 35.5425 -84.8428 346° North 411 473 34,000  Level Atlanta Center
Wed 10:50:51 PM 35.6569 -84.8797 345° North 411 473 34,000 -900 Level Atlanta Center
Wed 10:51:51 PM 35.7672 -84.9139 346° North 411 473 32,200 -611 Descending Atlanta Center
Wed 10:57:24 PM 36.4403 -85.1206 346° North 464 534 30,000 -1,220 Descending FlightAware ADS-B
Wed 11:01:41 PM 36.9672 -85.0896 North 418 481 20,200 -2,196 Descending FlightAware ADS-B
Wed 11:02:41 PM 37.0729 -85.0685 North 366 421 18,400 -2,031 Descending FlightAware ADS-B
Wed 11:03:51 PM 37.1876 -85.0459 North 342 394 15,800 -1,172 Descending FlightAware ADS-B
Wed 11:09:51 PM 37.7248 -85.0470 312° West 336 387 10,000 -841 Descending FlightAware ADS-B
Wed 11:10:52 PM 37.7883 -85.1362 312° West 339 390 9,900 -50 Descending FlightAware ADS-B
Wed 11:11:52 PM 37.8419 -85.2195 308° West 286 329 9,900 -785 Level FlightAware ADS-B
Wed 11:13:02 PM 37.8982 -85.3090 309° West 279 321 8,200 -1,535 Descending FlightAware ADS-B
Wed 11:14:01 PM 37.9477 -85.3842 311° West 281 323 6,600 -971 Descending FlightAware ADS-B
Wed 11:15:18 PM 38.0101 -85.4811 292° West 271 312 6,000 -242 Descending FlightAware ADS-B
Wed 11:16:30 PM 38.0440 -85.5867 292° West 272 313 6,000  Level FlightAware ADS-B
Wed 11:17:44 PM 38.0785 -85.6957 292° West 273 314 6,000  Level FlightAware ADS-B
Wed 11:18:43 PM 38.1059 -85.7837 292° West 273 314 6,000 -252 Level FlightAware ADS-B
Wed 11:19:43 PM 38.1678 -85.8312 350° North 266 306 5,500 -857 Descending FlightAware ADS-B
Wed 11:20:42 PM 38.2376 -85.8464 351° North 254 292 4,300 -1,084 Descending FlightAware ADS-B
Wed 11:21:06 PM 38.2645 -85.8518 351° North 247 284 4,000 -474 Descending FlightAware ADS-B
Wed 11:21:20 PM 38.2762 -85.8564 334° Northwest 240 276 4,000 -632 Level FlightAware ADS-B
Wed 11:21:44 PM 38.3030 -85.8736 332° Northwest 241 277 3,600 -1,125 Descending FlightAware ADS-B
Wed 11:22:08 PM 38.3259 -85.8878 345° North 242 278 3,100 -1,091 Descending FlightAware ADS-B
Wed 11:22:17 PM 38.3379 -85.8885 15° North 229 264 3,000 -250 Descending FlightAware ADS-B
Wed 11:22:32 PM 38.3516 -85.8803 43° Northeast 209 241 3,000  Level FlightAware ADS-B
Wed 11:22:45 PM 38.3575 -85.8684 70° East 194 223 3,000  Level FlightAware ADS-B
Wed 11:22:56 PM 38.3576 -85.8554 105° East 178 205 3,000  Level FlightAware ADS-B
Wed 11:23:09 PM 38.3530 -85.8454 130° Southeast 170 196 3,000  Level FlightAware ADS-B
Wed 11:23:48 PM 38.3333 -85.8167 130° Southeast 168 193 3,000 -68 Level Louisville TRACON
Wed 11:24:37 PM 38.3069 -85.7858 137° Southeast 180 207 2,900 -436 Descending Indianapolis Center
Wed 11:25:38 PM 38.2656 -85.7761 170° South 163 188 2,200 -689 Descending Indianapolis Center

Login

Don't have an account? Register now (free) for customized features, flight alerts, and more!